createdAt,value
2019-01-15T00:01:00.205Z,4.67
2019-01-15T00:03:29.278Z,8.80
2019-01-15T00:05:58.639Z,5.63
2019-01-15T00:08:27.697Z,8.93
2019-01-15T00:10:56.741Z,4.77
2019-01-15T00:13:25.830Z,6.30
2019-01-15T00:15:54.910Z,13.63
2019-01-15T00:18:23.970Z,6.83
2019-01-15T00:20:54.509Z,6.77
2019-01-15T00:23:23.634Z,6.77
2019-01-15T00:25:52.704Z,4.93
2019-01-15T00:28:21.836Z,7.20
2019-01-15T00:30:50.947Z,5.60
2019-01-15T00:33:20.165Z,9.87
2019-01-15T00:35:49.253Z,5.63
2019-01-15T00:38:18.436Z,6.63
2019-01-15T00:40:47.570Z,6.27
2019-01-15T00:43:16.681Z,5.17
2019-01-15T00:45:45.820Z,4.97
2019-01-15T00:48:14.868Z,8.03
2019-01-15T00:50:43.913Z,6.73
2019-01-15T00:53:12.985Z,11.00
2019-01-15T00:55:42.066Z,7.10
2019-01-15T00:58:11.157Z,12.83
2019-01-15T01:00:40.214Z,10.83
2019-01-15T01:03:09.300Z,7.43
2019-01-15T01:05:38.550Z,6.27
2019-01-15T01:08:07.602Z,1.93
2019-01-15T01:10:37.005Z,7.43
2019-01-15T01:13:06.062Z,4.50
2019-01-15T01:15:35.110Z,7.03
2019-01-15T01:18:04.505Z,8.27
2019-01-15T01:20:34.574Z,8.67
2019-01-15T01:23:03.629Z,15.97
2019-01-15T01:25:32.726Z,4.93
2019-01-15T01:28:01.813Z,7.27
2019-01-15T01:30:31.017Z,8.17
2019-01-15T01:33:00.268Z,13.33
2019-01-15T01:35:29.314Z,9.40
2019-01-15T01:37:58.400Z,6.03
2019-01-15T01:40:27.450Z,7.97
2019-01-15T01:42:56.502Z,5.53
2019-01-15T01:45:25.598Z,9.30
2019-01-15T01:47:54.642Z,10.53
2019-01-15T01:50:23.709Z,7.07
2019-01-15T01:52:54.774Z,7.03
2019-01-15T01:55:23.861Z,9.43
2019-01-15T01:57:52.910Z,11.70
2019-01-15T02:00:22.410Z,7.83
2019-01-15T02:02:51.482Z,6.20
2019-01-15T02:05:20.492Z,5.70
2019-01-15T02:07:50.903Z,5.63
2019-01-15T02:10:20.867Z,5.73
2019-01-15T02:12:51.027Z,9.73
2019-01-15T02:15:24.977Z,8.77
2019-01-15T02:17:54.030Z,8.60
2019-01-15T02:20:23.636Z,10.83
2019-01-15T02:22:52.647Z,8.23
2019-01-15T02:25:21.666Z,10.40
2019-01-15T02:27:52.391Z,6.97
2019-01-15T02:30:23.537Z,9.27
2019-01-15T02:32:52.899Z,5.47
2019-01-15T02:35:21.904Z,10.77
2019-01-15T02:37:51.102Z,3.73
2019-01-15T02:40:20.129Z,7.40
2019-01-15T02:42:49.123Z,5.43
2019-01-15T02:45:19.895Z,5.83
2019-01-15T02:47:49.070Z,9.97
2019-01-15T02:50:19.069Z,11.97
2019-01-15T02:52:48.281Z,10.10
2019-01-15T02:55:17.430Z,6.10
2019-01-15T02:57:46.558Z,7.10
2019-01-15T03:00:26.214Z,7.70
2019-01-15T03:02:55.370Z,6.10
2019-01-15T03:05:24.714Z,11.27
2019-01-15T03:07:54.206Z,7.67
2019-01-15T03:10:23.553Z,12.93
2019-01-15T03:12:56.382Z,9.13
2019-01-15T03:15:24.932Z,8.60
2019-01-15T03:17:54.322Z,7.33
2019-01-15T03:20:23.580Z,8.63
2019-01-15T03:22:52.710Z,7.67
2019-01-15T03:25:21.933Z,5.83
2019-01-15T03:27:51.144Z,6.97
2019-01-15T03:30:24.776Z,5.43
2019-01-15T03:32:53.992Z,6.97
2019-01-15T03:35:23.318Z,2.83
2019-01-15T03:37:52.530Z,9.80
2019-01-15T03:40:23.788Z,12.13
2019-01-15T03:42:52.941Z,11.60
2019-01-15T03:45:22.170Z,10.57
2019-01-15T03:47:51.318Z,7.97
2019-01-15T03:50:20.585Z,5.90
2019-01-15T03:52:49.960Z,9.07
2019-01-15T03:55:19.514Z,5.27
2019-01-15T03:57:48.655Z,6.83
2019-01-15T04:00:23.440Z,9.07
2019-01-15T04:02:52.916Z,2.87
2019-01-15T04:05:22.177Z,6.07
2019-01-15T04:07:55.620Z,9.23
2019-01-15T04:10:25.000Z,9.77
2019-01-15T04:12:54.330Z,7.70
2019-01-15T04:15:23.624Z,4.40
2019-01-15T04:17:52.908Z,7.43
2019-01-15T04:20:22.226Z,10.40
2019-01-15T04:22:51.545Z,5.33
2019-01-15T04:25:20.831Z,7.17
2019-01-15T04:27:50.089Z,8.10
2019-01-15T04:30:21.489Z,6.70
2019-01-15T04:32:50.782Z,8.80
2019-01-15T04:35:20.459Z,13.00
2019-01-15T04:37:49.712Z,6.63
2019-01-15T04:40:20.841Z,5.13
2019-01-15T04:42:50.157Z,6.03
2019-01-15T04:45:23.581Z,5.53
2019-01-15T04:47:52.953Z,9.60
2019-01-15T04:50:22.346Z,17.63
2019-01-15T04:53:04.007Z,6.73
2019-01-15T04:55:34.942Z,6.80
2019-01-15T04:58:04.239Z,7.07
2019-01-15T05:00:33.517Z,8.37
2019-01-15T05:03:05.918Z,6.40
2019-01-15T05:05:35.214Z,8.57
2019-01-15T05:08:05.360Z,7.00
2019-01-15T05:10:36.216Z,8.83
2019-01-15T05:13:05.560Z,9.90
2019-01-15T05:15:35.228Z,15.13
2019-01-15T05:18:04.485Z,7.60
2019-01-15T05:20:33.749Z,10.40
2019-01-15T05:23:03.093Z,7.13
2019-01-15T05:25:32.402Z,10.50
2019-01-15T05:28:01.651Z,3.63
2019-01-15T05:30:31.094Z,5.87
2019-01-15T05:33:00.446Z,8.03
2019-01-15T05:35:29.735Z,5.33
2019-01-15T05:37:58.996Z,9.47
2019-01-15T05:40:28.262Z,12.67
2019-01-15T05:42:57.553Z,5.83
2019-01-15T05:45:34.840Z,4.63
2019-01-15T05:48:10.819Z,9.17
2019-01-15T05:50:45.721Z,6.57
2019-01-15T05:53:15.052Z,7.00
2019-01-15T05:55:44.381Z,6.53
2019-01-15T05:58:13.760Z,6.43
2019-01-15T06:00:43.088Z,8.00
2019-01-15T06:03:12.372Z,6.37
2019-01-15T06:05:41.704Z,11.27
2019-01-15T06:08:11.073Z,7.40
2019-01-15T06:10:40.363Z,4.77
2019-01-15T06:13:09.661Z,6.63
2019-01-15T06:15:39.080Z,4.83
2019-01-15T06:18:08.392Z,7.97
2019-01-15T06:20:37.661Z,5.97
2019-01-15T06:23:06.964Z,8.50
2019-01-15T06:25:36.248Z,5.33
2019-01-15T06:28:05.765Z,6.03
2019-01-15T06:30:35.080Z,4.13
2019-01-15T06:33:04.360Z,9.57
2019-01-15T06:35:33.644Z,5.67
2019-01-15T06:38:02.954Z,5.73
2019-01-15T06:40:32.277Z,5.73
2019-01-15T06:43:01.564Z,9.63
2019-01-15T06:45:30.989Z,8.03
2019-01-15T06:48:00.288Z,7.90
2019-01-15T06:50:29.572Z,6.13
2019-01-15T06:52:58.858Z,6.03
2019-01-15T06:55:28.162Z,4.73
2019-01-15T06:57:57.574Z,4.27
2019-01-15T07:00:28.233Z,7.97
2019-01-15T07:02:57.694Z,2.97
2019-01-15T07:05:27.125Z,12.53
2019-01-15T07:07:56.483Z,9.17
2019-01-15T07:10:37.264Z,5.90
2019-01-15T07:13:06.546Z,10.00
2019-01-15T07:15:35.859Z,4.63
2019-01-15T07:18:05.444Z,6.53
2019-01-15T07:20:34.871Z,3.10
2019-01-15T07:23:04.220Z,11.90
2019-01-15T07:25:33.533Z,11.23
2019-01-15T07:28:04.525Z,5.20
2019-01-15T07:30:53.994Z,3.13
2019-01-15T07:33:25.679Z,4.87
2019-01-15T07:35:55.055Z,7.13
2019-01-15T07:38:24.425Z,5.50
2019-01-15T07:40:53.680Z,8.93
2019-01-15T07:43:24.505Z,11.13
2019-01-15T07:45:53.801Z,5.53
2019-01-15T07:48:23.066Z,5.63
2019-01-15T07:50:52.368Z,6.57
2019-01-15T07:53:21.628Z,4.67
2019-01-15T07:55:50.937Z,6.33
2019-01-15T07:58:21.957Z,6.80
2019-01-15T08:00:51.377Z,4.67
2019-01-15T08:03:20.669Z,4.63
2019-01-15T08:05:49.901Z,6.80
2019-01-15T08:08:19.186Z,8.47
2019-01-15T08:10:48.496Z,5.50
2019-01-15T08:13:17.770Z,6.77
2019-01-15T08:15:47.366Z,4.37
2019-01-15T08:18:16.660Z,6.87
2019-01-15T08:20:45.916Z,7.13
2019-01-15T08:23:15.216Z,6.23
2019-01-15T08:25:44.493Z,6.00
2019-01-15T08:28:13.964Z,4.47
2019-01-15T08:30:43.449Z,7.07
2019-01-15T08:33:12.730Z,3.07
2019-01-15T08:35:42.092Z,3.97
2019-01-15T08:38:11.357Z,6.07
2019-01-15T08:40:40.684Z,6.50
2019-01-15T08:43:10.014Z,7.93
2019-01-15T08:45:39.297Z,4.23
2019-01-15T08:48:11.468Z,8.60
2019-01-15T08:50:40.784Z,8.97
2019-01-15T08:53:10.772Z,6.97
2019-01-15T08:55:40.082Z,4.67
2019-01-15T08:58:09.380Z,3.07
2019-01-15T09:00:38.693Z,3.27
2019-01-15T09:03:08.237Z,5.33
2019-01-15T09:05:37.513Z,5.03
2019-01-15T09:08:06.846Z,9.63
2019-01-15T09:10:36.136Z,6.60
2019-01-15T09:13:05.691Z,3.77
2019-01-15T09:15:35.344Z,4.93
2019-01-15T09:18:04.778Z,3.87
2019-01-15T09:20:34.058Z,5.77
2019-01-15T09:23:03.355Z,2.73
2019-01-15T09:25:32.613Z,5.40
2019-01-15T09:28:01.908Z,3.60
2019-01-15T09:30:31.169Z,6.33
2019-01-15T09:33:00.508Z,6.70
2019-01-15T09:35:29.977Z,5.20
2019-01-15T09:37:59.673Z,3.37
2019-01-15T09:40:28.979Z,4.83
2019-01-15T09:42:58.314Z,4.73
2019-01-15T09:45:27.565Z,5.93
2019-01-15T09:48:03.944Z,7.33
2019-01-15T09:50:33.308Z,4.00
2019-01-15T09:53:03.321Z,11.23
2019-01-15T09:55:32.625Z,5.63
2019-01-15T09:58:01.888Z,4.83
2019-01-15T10:00:31.209Z,9.43
2019-01-15T10:03:00.501Z,4.87
2019-01-15T10:05:29.825Z,3.80
2019-01-15T10:07:59.129Z,5.57
2019-01-15T10:10:28.441Z,7.87
2019-01-15T10:12:57.798Z,7.60
2019-01-15T10:15:27.149Z,3.57
2019-01-15T10:17:56.511Z,5.97
2019-01-15T10:20:25.784Z,3.80
2019-01-15T10:22:55.060Z,8.60
2019-01-15T10:25:26.081Z,4.23
2019-01-15T10:27:56.064Z,5.90
2019-01-15T10:31:21.386Z,5.33
2019-01-15T10:33:58.284Z,5.80
2019-01-15T10:36:25.954Z,5.63
2019-01-15T10:38:55.256Z,6.00
2019-01-15T10:41:24.865Z,5.00
2019-01-15T10:43:54.129Z,4.63
2019-01-15T10:46:23.388Z,10.30
2019-01-15T10:48:53.170Z,9.07
2019-01-15T10:51:22.457Z,4.83
2019-01-15T10:53:51.733Z,4.70
2019-01-15T10:56:21.035Z,6.27
2019-01-15T10:58:50.360Z,7.47
2019-01-15T11:01:21.151Z,7.10
2019-01-15T11:03:50.417Z,4.30
2019-01-15T11:06:19.804Z,8.90
2019-01-15T11:08:49.313Z,7.67
2019-01-15T11:11:18.641Z,6.73
2019-01-15T11:13:47.933Z,6.50
2019-01-15T11:16:17.220Z,12.33
2019-01-15T11:18:46.565Z,6.23
2019-01-15T11:21:15.857Z,5.57
2019-01-15T11:23:45.172Z,7.00
2019-01-15T11:26:14.470Z,5.40
2019-01-15T11:28:43.871Z,5.00
2019-01-15T11:31:13.164Z,4.57
2019-01-15T11:33:42.453Z,4.60
2019-01-15T11:36:11.736Z,7.43
2019-01-15T11:38:41.025Z,8.13
2019-01-15T11:41:10.318Z,6.13
2019-01-15T11:43:39.580Z,9.47
2019-01-15T11:46:08.844Z,7.83
2019-01-15T11:48:38.152Z,7.00
2019-01-15T11:51:07.413Z,5.00
2019-01-15T11:53:36.681Z,8.67
2019-01-15T11:56:06.002Z,6.87
2019-01-15T11:58:35.484Z,9.03
2019-01-15T12:01:26.760Z,8.43
2019-01-15T12:04:13.917Z,12.43
2019-01-15T12:07:00.794Z,8.07
2019-01-15T12:09:49.038Z,17.50
2019-01-15T12:12:31.053Z,9.40
2019-01-15T12:15:18.119Z,5.37
2019-01-15T12:18:12.694Z,8.63
2019-01-15T12:21:00.948Z,10.73
2019-01-15T12:23:47.943Z,6.83
2019-01-15T12:26:36.286Z,9.13
2019-01-15T12:29:19.397Z,8.00
2019-01-15T12:32:07.636Z,14.17
2019-01-15T12:35:01.869Z,10.37
2019-01-15T12:37:48.626Z,9.27
2019-01-15T12:40:42.606Z,8.97
2019-01-15T12:43:30.876Z,8.77
2019-01-15T12:46:34.841Z,9.47
2019-01-15T12:49:22.007Z,9.43
2019-01-15T12:52:28.365Z,9.03
2019-01-15T12:55:16.733Z,11.80
2019-01-15T12:58:22.952Z,7.90
2019-01-15T13:01:14.268Z,10.27
2019-01-15T13:04:08.153Z,9.63
2019-01-15T13:06:57.450Z,9.03
2019-01-15T13:09:54.905Z,10.60
2019-01-15T13:12:58.225Z,8.47
2019-01-15T13:15:40.722Z,12.80
2019-01-15T13:18:38.379Z,9.67
2019-01-15T13:21:27.052Z,13.80
2019-01-15T13:24:21.341Z,10.03
2019-01-15T13:27:08.928Z,9.73
2019-01-15T13:29:59.968Z,11.10
2019-01-15T13:32:39.372Z,9.90
2019-01-15T13:35:19.977Z,12.13
2019-01-15T13:38:05.125Z,10.63
2019-01-15T13:40:52.384Z,12.33
2019-01-15T13:43:40.901Z,13.57
2019-01-15T13:46:27.952Z,13.47
2019-01-15T13:49:22.514Z,13.83
2019-01-15T13:52:10.756Z,14.73
2019-01-15T13:55:01.996Z,17.77
2019-01-15T13:57:49.392Z,14.90
2019-01-15T14:00:43.918Z,15.13
2019-01-15T14:03:35.221Z,14.33
2019-01-15T14:06:22.456Z,15.93
2019-01-15T14:09:01.136Z,14.60
2019-01-15T14:11:49.352Z,16.90
2019-01-15T14:14:36.531Z,18.87
2019-01-15T14:17:25.589Z,15.27
2019-01-15T14:20:23.100Z,16.47
2019-01-15T14:23:10.340Z,14.97
2019-01-15T14:25:53.694Z,14.60
2019-01-15T14:28:29.912Z,17.00
2019-01-15T14:31:24.205Z,16.63
2019-01-15T14:34:18.226Z,14.33
2019-01-15T14:37:15.489Z,21.10
2019-01-15T14:40:22.153Z,25.37
2019-01-15T14:43:09.451Z,14.73
2019-01-15T14:46:09.853Z,14.00
2019-01-15T14:48:47.789Z,14.90
2019-01-15T14:51:34.640Z,16.80
2019-01-15T14:54:27.040Z,16.17
2019-01-15T14:57:21.401Z,15.13
2019-01-15T15:00:09.665Z,17.60
2019-01-15T15:02:56.704Z,15.07
2019-01-15T15:05:51.100Z,14.10
2019-01-15T15:08:49.668Z,16.40
2019-01-15T15:11:27.741Z,16.23
2019-01-15T15:14:14.613Z,22.07
2019-01-15T15:17:05.889Z,19.33
2019-01-15T15:19:47.791Z,18.53
2019-01-15T15:22:46.429Z,15.37
2019-01-15T15:25:37.564Z,14.53
2019-01-15T15:28:24.400Z,17.37
2019-01-15T15:31:15.113Z,18.40
2019-01-15T15:34:02.249Z,17.57
2019-01-15T15:36:49.428Z,15.63
2019-01-15T15:39:34.757Z,18.73
2019-01-15T15:42:22.341Z,17.37
2019-01-15T15:45:09.468Z,20.03
2019-01-15T15:48:00.764Z,22.53
2019-01-15T15:50:49.065Z,21.43
2019-01-15T15:53:33.377Z,21.70
2019-01-15T15:56:18.005Z,21.53
2019-01-15T15:59:12.309Z,23.30
2019-01-15T16:02:07.188Z,19.90
2019-01-15T16:04:54.204Z,18.10
2019-01-15T16:07:48.304Z,19.67
2019-01-15T16:10:48.625Z,18.40
2019-01-15T16:13:43.099Z,17.77
2019-01-15T16:16:23.793Z,21.33
2019-01-15T16:19:14.801Z,20.93
2019-01-15T16:22:07.757Z,21.83
2019-01-15T16:24:48.322Z,20.20
2019-01-15T16:27:39.709Z,21.53
2019-01-15T16:30:37.597Z,22.93
2019-01-15T16:33:28.854Z,26.33
2019-01-15T16:36:10.799Z,23.47
2019-01-15T16:39:08.237Z,17.37
2019-01-15T16:41:53.745Z,22.47
2019-01-15T16:44:36.471Z,18.70
2019-01-15T16:47:30.925Z,23.97
2019-01-15T16:50:15.629Z,22.87
2019-01-15T16:53:06.955Z,18.23
2019-01-15T16:55:53.790Z,18.47
2019-01-15T16:58:40.581Z,20.43
2019-01-15T17:01:33.413Z,20.83
2019-01-15T17:04:10.471Z,21.47
2019-01-15T17:06:54.560Z,21.53
2019-01-15T17:09:45.592Z,17.03
2019-01-15T17:12:41.878Z,15.00
2019-01-15T17:15:39.165Z,18.80
2019-01-15T17:18:22.024Z,15.83
2019-01-15T17:21:13.041Z,16.17
2019-01-15T17:23:51.990Z,16.97
2019-01-15T17:26:43.433Z,20.33
2019-01-15T17:29:37.653Z,18.70
2019-01-15T17:32:25.893Z,16.67
2019-01-15T17:35:18.768Z,15.10
2019-01-15T17:38:01.396Z,16.47
2019-01-15T17:40:48.272Z,16.80
2019-01-15T17:43:37.653Z,16.83
2019-01-15T17:46:28.933Z,16.93
2019-01-15T17:49:15.989Z,13.20
2019-01-15T17:52:10.053Z,15.17
2019-01-15T17:55:01.033Z,13.27
2019-01-15T17:57:47.960Z,15.87
2019-01-15T18:00:48.060Z,16.73
2019-01-15T18:03:42.296Z,15.63
2019-01-15T18:06:40.021Z,15.10
2019-01-15T18:09:31.800Z,12.47
2019-01-15T18:12:26.086Z,10.87
2019-01-15T18:15:11.245Z,14.33
2019-01-15T18:18:02.969Z,13.27
2019-01-15T18:21:00.250Z,11.90
2019-01-15T18:24:08.722Z,14.83
2019-01-15T18:26:55.611Z,12.63
2019-01-15T18:29:38.498Z,11.97
2019-01-15T18:32:27.870Z,11.80
2019-01-15T18:35:10.005Z,11.87
2019-01-15T18:37:50.033Z,11.57
2019-01-15T18:40:41.609Z,9.87
2019-01-15T18:43:28.694Z,13.10
2019-01-15T18:46:23.076Z,11.70
2019-01-15T18:49:11.317Z,11.47
2019-01-15T18:51:56.325Z,10.03
2019-01-15T18:54:43.776Z,10.60
2019-01-15T18:57:47.452Z,13.37
2019-01-15T19:00:38.565Z,9.40
2019-01-15T19:03:45.901Z,11.00
2019-01-15T19:06:33.378Z,11.60
2019-01-15T19:09:25.975Z,11.07
2019-01-15T19:12:12.817Z,10.87
2019-01-15T19:15:02.556Z,11.63
2019-01-15T19:17:50.772Z,10.07
2019-01-15T19:20:57.167Z,10.33
2019-01-15T19:23:57.333Z,9.27
2019-01-15T19:26:42.555Z,7.47
2019-01-15T19:29:48.932Z,8.60
2019-01-15T19:32:42.892Z,10.13
2019-01-15T19:35:31.341Z,9.70
2019-01-15T19:38:22.507Z,8.60
2019-01-15T19:41:26.156Z,10.53
2019-01-15T19:44:17.672Z,10.10
2019-01-15T19:47:10.581Z,11.80
2019-01-15T19:50:00.840Z,9.77
2019-01-15T19:52:48.216Z,8.63
2019-01-15T19:55:36.543Z,10.17
2019-01-15T19:58:33.929Z,11.17
2019-01-15T20:01:35.009Z,11.10
2019-01-15T20:04:23.843Z,11.03
2019-01-15T20:07:11.062Z,14.13
2019-01-15T20:10:12.147Z,11.13
2019-01-15T20:12:53.681Z,12.27
2019-01-15T20:15:48.249Z,9.93
2019-01-15T20:18:41.448Z,13.30
2019-01-15T20:21:34.524Z,11.13
2019-01-15T20:24:22.124Z,10.57
2019-01-15T20:27:13.229Z,10.63
2019-01-15T20:29:54.937Z,11.80
2019-01-15T20:32:43.173Z,10.90
2019-01-15T20:35:22.417Z,11.33
2019-01-15T20:38:26.017Z,11.47
2019-01-15T20:41:16.308Z,14.27
2019-01-15T20:44:23.865Z,10.57
2019-01-15T20:47:25.683Z,14.13
2019-01-15T20:50:22.649Z,11.53
2019-01-15T20:53:29.255Z,12.07
2019-01-15T20:56:19.328Z,11.07
2019-01-15T20:59:07.105Z,10.23
2019-01-15T21:02:04.500Z,11.63
2019-01-15T21:05:02.228Z,12.70
2019-01-15T21:07:49.633Z,9.83
2019-01-15T21:10:37.028Z,10.63
2019-01-15T21:13:43.810Z,11.50
2019-01-15T21:16:37.937Z,15.70
2019-01-15T21:19:34.916Z,10.33
2019-01-15T21:22:22.180Z,10.63
2019-01-15T21:25:09.005Z,10.53
2019-01-15T21:28:03.353Z,10.20
2019-01-15T21:31:06.884Z,11.93
2019-01-15T21:34:04.176Z,11.97
2019-01-15T21:36:55.170Z,9.60
2019-01-15T21:39:41.998Z,9.33
2019-01-15T21:42:28.017Z,7.07
2019-01-15T21:45:12.245Z,7.33
2019-01-15T21:48:09.457Z,8.70
2019-01-15T21:50:52.188Z,9.63
2019-01-15T21:53:35.167Z,7.67
2019-01-15T21:56:14.897Z,6.70
2019-01-15T21:59:21.585Z,7.63
2019-01-15T22:02:09.809Z,8.37
2019-01-15T22:05:00.936Z,8.10
2019-01-15T22:07:39.042Z,6.93
2019-01-15T22:10:21.128Z,7.23
2019-01-15T22:13:08.740Z,8.37
2019-01-15T22:15:55.780Z,6.87
2019-01-15T22:18:59.685Z,7.20
2019-01-15T22:22:00.076Z,9.27
2019-01-15T22:24:47.237Z,10.03
2019-01-15T22:27:38.204Z,7.83
2019-01-15T22:30:36.401Z,8.77
2019-01-15T22:33:23.323Z,9.30
2019-01-15T22:36:10.649Z,9.53
2019-01-15T22:39:02.464Z,10.07
2019-01-15T22:41:40.977Z,10.03
2019-01-15T22:44:47.621Z,9.83
2019-01-15T22:47:34.734Z,11.03
2019-01-15T22:50:29.912Z,11.80
2019-01-15T22:53:18.176Z,14.70
2019-01-15T22:56:05.565Z,10.87
2019-01-15T22:58:56.565Z,12.20
2019-01-15T23:01:43.348Z,12.87
2019-01-15T23:04:33.874Z,16.03
2019-01-15T23:07:16.479Z,11.57
2019-01-15T23:10:04.722Z,10.60
2019-01-15T23:12:56.521Z,14.07
2019-01-15T23:15:45.508Z,13.33
2019-01-15T23:18:30.587Z,13.13
2019-01-15T23:21:17.521Z,12.70
2019-01-15T23:24:05.453Z,12.60
2019-01-15T23:26:47.197Z,12.67
2019-01-15T23:29:38.207Z,12.77
2019-01-15T23:32:25.414Z,12.63
2019-01-15T23:35:25.810Z,12.03
2019-01-15T23:38:22.729Z,12.83
2019-01-15T23:41:10.988Z,10.17
2019-01-15T23:44:02.381Z,11.97
2019-01-15T23:47:02.921Z,11.53
2019-01-15T23:49:51.573Z,12.43
2019-01-15T23:52:38.450Z,12.73
2019-01-15T23:55:45.352Z,11.30
2019-01-15T23:58:27.669Z,11.27
